createdAt,value
2023-05-14T00:00:19.513Z,13.71
2023-05-14T00:05:22.334Z,13.93
2023-05-14T00:10:25.223Z,14.16
2023-05-14T00:15:29.481Z,14.04
2023-05-14T00:20:32.222Z,13.93
2023-05-14T00:25:35.015Z,13.85
2023-05-14T00:30:39.729Z,13.75
2023-05-14T00:35:42.518Z,13.82
2023-05-14T00:40:49.942Z,13.89
2023-05-14T00:45:55.288Z,13.84
2023-05-14T00:50:58.158Z,13.63
2023-05-14T00:56:03.783Z,13.39
2023-05-14T01:01:08.065Z,13.09
2023-05-14T01:06:18.141Z,13.04
2023-05-14T01:11:25.665Z,12.77
2023-05-14T01:16:31.987Z,12.76
2023-05-14T01:21:38.572Z,12.71
2023-05-14T01:26:41.589Z,12.74
2023-05-14T01:31:46.549Z,12.62
2023-05-14T01:36:52.363Z,12.44
2023-05-14T01:41:56.438Z,12.42
2023-05-14T01:46:59.228Z,12.24
2023-05-14T01:52:03.415Z,12.21
2023-05-14T01:57:06.551Z,12.13
2023-05-14T02:02:09.326Z,12.18
2023-05-14T02:07:13.664Z,11.92
2023-05-14T02:12:16.431Z,11.75
2023-05-14T02:17:19.372Z,11.61
2023-05-14T02:22:23.462Z,11.68
2023-05-14T02:27:26.245Z,11.66
2023-05-14T02:32:29.227Z,11.46
2023-05-14T02:37:34.707Z,11.36
2023-05-14T02:42:37.535Z,11.31
2023-05-14T02:47:40.518Z,11.36
2023-05-14T02:52:44.685Z,11.27
2023-05-14T02:57:47.647Z,11.36
2023-05-14T03:02:50.548Z,11.31
2023-05-14T03:07:55.416Z,11.41
2023-05-14T03:12:58.214Z,11.34
2023-05-14T03:18:01.027Z,11.36
2023-05-14T03:23:05.261Z,11.36
2023-05-14T03:28:08.083Z,11.05
2023-05-14T03:33:10.937Z,10.93
2023-05-14T03:38:15.060Z,11.03
2023-05-14T03:43:17.848Z,11.11
2023-05-14T03:48:21.317Z,11.14
2023-05-14T03:53:25.575Z,11.16
2023-05-14T03:58:28.362Z,11.12
2023-05-14T04:03:31.238Z,11.29
2023-05-14T04:08:35.651Z,11.39
2023-05-14T04:13:38.628Z,11.27
2023-05-14T04:18:41.675Z,11.28
2023-05-14T04:23:45.915Z,11.25
2023-05-14T04:28:48.682Z,11.18
2023-05-14T04:33:51.441Z,11.23
2023-05-14T04:38:55.968Z,11.11
2023-05-14T04:44:01.314Z,11.19
2023-05-14T04:49:04.163Z,11.30
2023-05-14T04:54:08.375Z,11.49
2023-05-14T04:59:11.227Z,11.77
2023-05-14T05:04:15.250Z,12.09
2023-05-14T05:09:19.831Z,12.20
2023-05-14T05:14:22.572Z,12.35
2023-05-14T05:19:35.685Z,12.60
2023-05-14T05:24:44.178Z,12.62
2023-05-14T05:29:46.981Z,12.86
2023-05-14T05:34:49.764Z,12.97
2023-05-14T05:39:53.995Z,13.02
2023-05-14T05:44:56.854Z,13.26
2023-05-14T05:49:59.614Z,13.36
2023-05-14T05:55:03.720Z,13.73
2023-05-14T06:00:13.235Z,13.83
2023-05-14T06:05:16.064Z,14.23
2023-05-14T06:10:20.621Z,14.51
2023-05-14T06:15:24.137Z,14.76
2023-05-14T06:20:26.998Z,15.23
2023-05-14T06:25:31.173Z,15.64
2023-05-14T06:30:34.284Z,16.05
2023-05-14T06:35:37.088Z,16.36
2023-05-14T06:40:41.224Z,16.66
2023-05-14T06:45:43.970Z,16.99
2023-05-14T06:50:47.221Z,17.41
2023-05-14T06:55:51.400Z,17.84
2023-05-14T07:00:54.193Z,17.84
2023-05-14T07:05:56.981Z,17.94
2023-05-14T07:11:01.142Z,17.47
2023-05-14T07:16:03.922Z,17.40
2023-05-14T07:21:07.194Z,17.64
2023-05-14T07:26:11.387Z,17.64
2023-05-14T07:31:14.199Z,17.66
2023-05-14T07:36:17.114Z,17.87
2023-05-14T07:41:21.514Z,17.86
2023-05-14T07:46:25.788Z,17.86
2023-05-14T07:51:29.198Z,18.14
2023-05-14T07:56:33.391Z,18.70
2023-05-14T08:01:39.073Z,19.05
2023-05-14T08:06:42.227Z,19.58
2023-05-14T08:11:46.402Z,19.50
2023-05-14T08:16:50.020Z,19.95
2023-05-14T08:21:52.833Z,20.47
2023-05-14T08:26:57.006Z,20.89
2023-05-14T08:32:05.808Z,20.75
2023-05-14T08:37:14.809Z,20.54
2023-05-14T08:42:22.794Z,20.55
2023-05-14T08:47:26.436Z,20.67
2023-05-14T08:52:29.548Z,21.13
2023-05-14T08:57:34.835Z,21.71
2023-05-14T09:02:38.116Z,22.17
2023-05-14T09:07:40.912Z,21.93
2023-05-14T09:12:45.115Z,21.61
2023-05-14T09:17:49.234Z,21.56
2023-05-14T09:22:54.247Z,22.19
2023-05-14T09:27:58.881Z,22.68
2023-05-14T09:33:03.958Z,22.67
2023-05-14T09:38:06.748Z,22.81
2023-05-14T09:43:11.386Z,23.18
2023-05-14T09:48:14.261Z,23.32
2023-05-14T09:53:17.761Z,22.83
2023-05-14T09:58:22.026Z,22.37
2023-05-14T10:03:27.844Z,22.58
2023-05-14T10:08:34.969Z,23.13
2023-05-14T10:13:42.726Z,23.24
2023-05-14T10:18:52.400Z,23.84
2023-05-14T10:23:55.350Z,23.28
2023-05-14T10:29:00.180Z,22.99
2023-05-14T10:34:03.168Z,24.50
2023-05-14T10:39:06.130Z,25.79
2023-05-14T10:44:11.358Z,25.35
2023-05-14T10:49:14.188Z,24.92
2023-05-14T10:54:17.774Z,24.68
2023-05-14T10:59:29.188Z,25.49
2023-05-14T11:04:32.754Z,25.90
2023-05-14T11:09:36.099Z,26.01
2023-05-14T11:14:40.277Z,26.26
2023-05-14T11:19:44.723Z,26.69
2023-05-14T11:24:47.583Z,26.99
2023-05-14T11:29:52.039Z,26.68
2023-05-14T11:34:54.836Z,25.41
2023-05-14T11:40:02.934Z,24.66
2023-05-14T11:45:08.596Z,24.94
2023-05-14T11:50:11.949Z,26.78
2023-05-14T11:55:14.845Z,26.01
2023-05-14T12:00:22.066Z,25.40
2023-05-14T12:05:25.078Z,24.80
2023-05-14T12:10:27.818Z,24.58
2023-05-14T12:15:32.375Z,24.58
2023-05-14T12:20:35.107Z,24.82
2023-05-14T12:25:39.334Z,24.50
2023-05-14T12:30:43.490Z,24.80
2023-05-14T12:35:46.935Z,24.88
2023-05-14T12:40:49.656Z,24.73
2023-05-14T12:45:53.827Z,25.23
2023-05-14T12:50:56.623Z,25.90
2023-05-14T12:55:59.450Z,27.21
2023-05-14T13:01:03.837Z,27.74
2023-05-14T13:06:06.869Z,26.80
2023-05-14T13:11:09.611Z,25.67
2023-05-14T13:16:16.783Z,25.09
2023-05-14T13:21:19.683Z,25.16
2023-05-14T13:26:22.659Z,25.08
2023-05-14T13:31:26.772Z,24.87
2023-05-14T13:36:30.983Z,24.94
2023-05-14T13:41:35.486Z,24.28
2023-05-14T13:46:39.672Z,24.04
2023-05-14T13:51:42.524Z,24.00
2023-05-14T13:56:45.316Z,24.03
2023-05-14T14:01:50.082Z,24.56
2023-05-14T14:06:52.963Z,24.36
2023-05-14T14:11:55.845Z,24.15
2023-05-14T14:17:00.106Z,24.96
2023-05-14T14:22:03.065Z,24.88
2023-05-14T14:27:06.583Z,25.46
2023-05-14T14:32:10.752Z,25.58
2023-05-14T14:37:13.514Z,25.19
2023-05-14T14:42:16.347Z,25.30
2023-05-14T14:47:20.493Z,23.90
2023-05-14T14:52:23.635Z,22.83
2023-05-14T14:57:26.718Z,22.42
2023-05-14T15:02:31.062Z,22.75
2023-05-14T15:07:34.133Z,22.89
2023-05-14T15:12:37.110Z,22.94
2023-05-14T15:17:41.289Z,22.85
2023-05-14T15:22:44.124Z,22.65
2023-05-14T15:27:46.969Z,22.06
2023-05-14T15:32:51.226Z,21.58
2023-05-14T15:37:57.189Z,21.98
2023-05-14T15:42:59.973Z,22.54
2023-05-14T15:48:04.312Z,22.59
2023-05-14T15:53:07.179Z,22.18
2023-05-14T15:58:10.018Z,22.02
2023-05-14T16:03:14.226Z,22.07
2023-05-14T16:08:17.056Z,22.62
2023-05-14T16:13:20.363Z,23.93
2023-05-14T16:18:25.181Z,23.55
2023-05-14T16:23:28.200Z,23.46
2023-05-14T16:28:30.953Z,22.88
2023-05-14T16:33:35.039Z,22.61
2023-05-14T16:38:44.563Z,23.35
2023-05-14T16:43:55.324Z,23.28
2023-05-14T16:48:59.494Z,22.50
2023-05-14T16:54:02.217Z,22.64
2023-05-14T16:59:04.976Z,23.99
2023-05-14T17:04:10.146Z,25.71
2023-05-14T17:09:12.937Z,26.35
2023-05-14T17:14:15.887Z,26.59
2023-05-14T17:19:20.016Z,25.29
2023-05-14T17:24:22.827Z,23.51
2023-05-14T17:29:26.257Z,21.78
2023-05-14T17:34:30.483Z,21.05
2023-05-14T17:39:33.274Z,21.10
2023-05-14T17:44:36.297Z,20.82
2023-05-14T17:49:40.477Z,20.27
2023-05-14T17:54:43.286Z,20.09
2023-05-14T17:59:46.122Z,18.40
2023-05-14T18:04:50.375Z,16.07
2023-05-14T18:09:53.140Z,14.69
2023-05-14T18:14:55.941Z,14.85
2023-05-14T18:20:00.201Z,12.89
2023-05-14T18:25:03.093Z,12.01
2023-05-14T18:30:07.334Z,12.22
2023-05-14T18:35:12.120Z,12.53
2023-05-14T18:40:17.729Z,12.68
2023-05-14T18:45:22.368Z,12.95
2023-05-14T18:50:26.646Z,13.79
2023-05-14T18:55:29.566Z,13.99
2023-05-14T19:00:32.331Z,14.04
2023-05-14T19:05:36.662Z,14.02
2023-05-14T19:10:39.453Z,13.68
2023-05-14T19:15:42.479Z,13.57
2023-05-14T19:20:47.168Z,13.65
2023-05-14T19:25:49.949Z,13.37
2023-05-14T19:30:53.439Z,13.23
2023-05-14T19:35:58.392Z,13.11
2023-05-14T19:41:01.138Z,13.13
2023-05-14T19:46:04.476Z,13.38
2023-05-14T19:51:10.891Z,13.57
2023-05-14T19:56:13.663Z,13.76
2023-05-14T20:01:16.498Z,13.42
2023-05-14T20:06:20.903Z,13.55
2023-05-14T20:11:23.694Z,12.83
2023-05-14T20:16:26.582Z,12.90
2023-05-14T20:21:31.571Z,13.21
2023-05-14T20:26:34.464Z,13.46
2023-05-14T20:31:37.274Z,13.20
2023-05-14T20:36:41.760Z,13.20
2023-05-14T20:41:45.548Z,13.13
2023-05-14T20:46:48.667Z,13.16
2023-05-14T20:51:52.841Z,13.33
2023-05-14T20:56:55.681Z,13.37
2023-05-14T21:01:58.498Z,13.39
2023-05-14T21:07:03.840Z,13.14
2023-05-14T21:12:07.430Z,12.95
2023-05-14T21:17:10.306Z,12.99
2023-05-14T21:22:14.821Z,13.01
2023-05-14T21:27:17.857Z,12.79
2023-05-14T21:32:22.121Z,12.72
2023-05-14T21:37:26.539Z,12.67
2023-05-14T21:42:29.275Z,12.65
2023-05-14T21:47:32.495Z,12.81
2023-05-14T21:52:37.841Z,12.81
2023-05-14T21:57:41.287Z,12.68
2023-05-14T22:02:44.020Z,12.70
2023-05-14T22:07:48.144Z,12.71
2023-05-14T22:12:50.844Z,12.80
2023-05-14T22:17:53.562Z,12.78
2023-05-14T22:22:57.595Z,12.68
2023-05-14T22:28:00.317Z,12.79
2023-05-14T22:33:03.068Z,12.82
2023-05-14T22:38:07.277Z,12.85
2023-05-14T22:43:09.963Z,12.67
2023-05-14T22:48:12.624Z,12.51
2023-05-14T22:53:16.655Z,12.29
2023-05-14T22:58:19.403Z,12.30
2023-05-14T23:03:22.052Z,12.47
2023-05-14T23:08:26.117Z,12.43
2023-05-14T23:13:28.898Z,11.91
2023-05-14T23:18:31.687Z,11.65
2023-05-14T23:23:35.960Z,11.65
2023-05-14T23:28:38.662Z,11.95
2023-05-14T23:33:41.431Z,12.11
2023-05-14T23:38:45.767Z,12.18
2023-05-14T23:43:48.828Z,12.30
2023-05-14T23:48:52.121Z,12.32
2023-05-14T23:53:58.452Z,12.33
2023-05-14T23:59:01.574Z,12.32
